Vayland, South Dakota
Current Conditions -  °F | °C
As of 4:55 PM on Tuesday 27 Jan 2015 (Local Time) from KHON Reporting Station
Clear Clear  
Wind Chill: 31°   Ceiling: Unl
Heat Index: 39°   Visibility: 7mi
Dew Point: 35°   Wind: 15mph
Humidity: 86%   Direction: 150°SSE
Pressure: 29.93"   Gusts: 22mph
Location:  44.3714°N, 98.681°W
Report Text: KHON 272255Z AUTO 15013G19KT 7SM CLR 04/02 A2993 RMK AO2 SLP148 T00390017
Loading
Personal Weather Stations






























Interactive Weather Map New forecast layout! Learn more

10-Day Weather Forecast

Advertisements
Track Severe Weather on mobile